Time;durP1;ratioP1;P1;durP2;ratioP2;P2;SDS_P1;SDS_P2;PMS_P1;PMS_P2;Temp;Humidity;BMP_temperature;BMP_pressure;BME280_temperature;BME280_humidity;BME280_pressure;Samples;Min_cycle;Max_cycle;Signal;HPM_P1;HPM_P2
2022/04/15 00:00:43;;;;;;;36.00;17.23;;;;;;;7.16;54.81;101011.48;123381;1099;104322;-79
2022/04/15 00:03:17;;;;;;;33.97;16.27;;;;;;;7.13;54.78;101019.13;123456;1097;104389;-78
2022/04/15 00:05:52;;;;;;;33.18;16.23;;;;;;;7.05;54.67;101012.58;123373;1099;104243;-78
2022/04/15 00:08:23;;;;;;;32.00;15.65;;;;;;;6.98;54.79;101016.55;123365;1099;104281;-79
2022/04/15 00:10:57;;;;;;;35.20;16.33;;;;;;;6.92;55.02;101010.05;123352;1099;104357;-78
2022/04/15 00:13:29;;;;;;;;;;;;;;;6.82;55.49;101009.55;123418;1098;104302;-78
2022/04/15 00:16:02;;;;;;;32.90;15.07;;;;;;;6.78;54.78;101009.27;123339;1099;104317;-77
2022/04/15 00:18:36;;;;;;;32.40;15.27;;;;;;;6.75;55.12;101011.70;123388;1099;104355;-78
2022/04/15 00:21:08;;;;;;;36.77;15.57;;;;;;;6.72;55.08;101007.19;123418;1097;104243;-78
2022/04/15 00:23:41;;;;;;;32.30;15.30;;;;;;;6.68;55.18;101007.80;123385;1099;104261;-78
2022/04/15 00:26:13;;;;;;;34.83;16.00;;;;;;;6.61;55.14;101011.77;123432;1097;104678;-78
2022/04/15 00:28:44;;;;;;;32.77;15.00;;;;;;;6.57;55.02;101014.09;123387;1099;104450;-78
2022/04/15 00:31:16;;;;;;;33.37;15.73;;;;;;;6.51;55.60;101013.73;123341;1099;104344;-78
2022/04/15 00:33:50;;;;;;;34.00;15.97;;;;;;;6.45;55.26;101003.81;123181;1099;104418;-78
2022/04/15 00:36:22;;;;;;;34.03;15.83;;;;;;;6.42;55.73;101008.84;123323;1099;104699;-77
2022/04/15 00:38:55;;;;;;;32.03;16.00;;;;;;;6.39;55.79;101009.58;123395;1099;104245;-78
2022/04/15 00:41:27;;;;;;;34.63;15.30;;;;;;;6.36;55.77;101014.61;123409;1099;105607;-79
2022/04/15 00:43:58;;;;;;;38.50;16.13;;;;;;;6.32;55.58;101012.61;123387;1099;104644;-78
2022/04/15 00:46:30;;;;;;;34.73;16.13;;;;;;;6.24;56.04;101012.14;123399;1099;104251;-78
2022/04/15 00:49:04;;;;;;;35.10;15.90;;;;;;;6.14;56.19;101009.80;123515;1099;104219;-78
2022/04/15 00:51:40;;;;;;;37.07;16.60;;;;;;;6.08;56.12;101002.48;123355;1099;104297;-78
2022/04/15 00:54:13;;;;;;;36.57;16.53;;;;;;;5.99;56.51;101001.92;123396;1099;104374;-77
2022/04/15 00:56:50;;;;;;;32.27;15.93;;;;;;;5.92;56.59;101003.22;123364;1099;104685;-76
2022/04/15 00:59:24;;;;;;;35.30;16.40;;;;;;;5.86;56.57;101002.83;123404;1099;104616;-78
2022/04/15 01:01:58;;;;;;;32.58;15.48;;;;;;;5.79;56.72;100995.42;123346;1098;104354;-78
2022/04/15 01:04:33;;;;;;;34.27;15.57;;;;;;;5.76;56.37;101009.17;123357;1099;104350;-78
2022/04/15 01:07:10;;;;;;;30.90;15.18;;;;;;;5.71;56.85;101010.56;123426;1099;104312;-78
2022/04/15 01:09:43;;;;;;;34.07;15.70;;;;;;;5.65;56.80;101007.57;123360;1099;104734;-78
2022/04/15 01:12:17;;;;;;;31.57;14.97;;;;;;;5.61;57.53;101002.07;123365;1098;104686;-77
2022/04/15 01:14:48;;;;;;;;;;;;;;;5.55;57.22;100993.08;123395;1097;104297;-77
2022/04/15 01:17:20;;;;;;;31.37;15.33;;;;;;;5.51;56.96;100991.06;123358;1099;104312;-77
2022/04/15 01:19:53;;;;;;;32.47;15.67;;;;;;;5.50;56.73;100993.58;123334;1099;104376;-78
2022/04/15 01:22:29;;;;;;;32.55;15.53;;;;;;;5.53;56.83;100994.70;123369;1099;104264;-79
2022/04/15 01:25:00;;;;;;;29.60;14.40;;;;;;;5.56;57.36;100984.48;123417;1099;104235;-78
2022/04/15 01:27:36;;;;;;;31.13;14.30;;;;;;;5.60;57.12;100987.27;123343;1099;104367;-77
2022/04/15 01:30:11;;;;;;;32.97;14.10;;;;;;;5.62;56.84;100985.66;123424;1099;104318;-77
2022/04/15 01:32:43;;;;;;;28.97;13.67;;;;;;;5.63;57.21;100980.55;123361;1099;104264;-79
2022/04/15 01:35:16;;;;;;;29.03;14.40;;;;;;;5.66;57.25;100972.93;123365;1098;104380;-78
2022/04/15 01:37:49;;;;;;;29.80;13.48;;;;;;;5.70;57.54;100972.33;123429;1099;104370;-78
2022/04/15 01:40:21;;;;;;;32.37;14.10;;;;;;;5.73;57.31;100971.61;123351;1098;104764;-79
2022/04/15 01:42:52;;;;;;;28.13;13.83;;;;;;;5.70;57.43;100960.99;123358;1097;104675;-79
2022/04/15 01:45:23;;;;;;;31.30;13.90;;;;;;;5.63;56.94;100959.72;123359;1096;104380;-77
2022/04/15 01:47:56;;;;;;;27.60;13.00;;;;;;;5.56;57.15;100962.73;123364;1099;104370;-78
2022/04/15 01:50:30;;;;;;;28.37;13.53;;;;;;;5.50;57.36;100958.05;123404;1099;104665;-78
2022/04/15 01:53:01;;;;;;;31.23;13.40;;;;;;;5.45;57.52;100953.34;123349;1099;104284;-78
2022/04/15 01:55:34;;;;;;;28.30;13.33;;;;;;;5.40;57.13;100946.14;123368;1099;104293;-78
2022/04/15 01:58:06;;;;;;;35.80;14.43;;;;;;;5.38;57.12;100946.86;123402;1099;104315;-77
2022/04/15 02:00:38;;;;;;;27.77;13.70;;;;;;;5.34;57.45;100943.14;123346;1098;104385;-79
2022/04/15 02:03:10;;;;;;;30.77;13.70;;;;;;;5.31;57.01;100955.06;123348;1099;104335;-79
2022/04/15 02:05:41;;;;;;;28.10;12.73;;;;;;;5.25;57.83;100947.79;123337;1099;104270;-79
2022/04/15 02:08:14;;;;;;;30.80;13.97;;;;;;;5.21;57.46;100938.86;123394;1099;104233;-78
2022/04/15 02:10:46;;;;;;;32.13;14.97;;;;;;;5.19;57.83;100943.08;123385;1097;104229;-78
2022/04/15 02:13:18;;;;;;;31.90;14.40;;;;;;;5.15;57.35;100937.58;123321;1097;104396;-78
2022/04/15 02:15:50;;;;;;;32.60;13.55;;;;;;;5.12;57.22;100951.28;123346;1098;104290;-78
2022/04/15 02:18:25;;;;;;;27.73;13.33;;;;;;;5.14;57.58;100943.58;123416;1097;104287;-78
2022/04/15 02:20:57;;;;;;;28.63;15.30;;;;;;;5.15;57.66;100958.39;123377;1099;104275;-78
2022/04/15 02:23:31;;;;;;;31.00;14.10;;;;;;;5.14;58.26;100948.78;123366;1099;104399;-78
2022/04/15 02:26:04;;;;;;;30.23;13.83;;;;;;;5.15;58.02;100947.98;123371;1099;104682;-78
2022/04/15 02:28:37;;;;;;;33.27;13.80;;;;;;;5.15;57.54;100941.07;123478;1098;104267;-77
2022/04/15 02:31:08;;;;;;;27.37;13.07;;;;;;;5.14;57.84;100947.09;123413;1099;104253;-77
2022/04/15 02:33:40;;;;;;;35.83;13.70;;;;;;;5.10;58.37;100942.48;123310;1098;104293;-78
2022/04/15 02:36:11;;;;;;;28.43;13.30;;;;;;;5.05;58.60;100941.30;123331;1099;104277;-78
2022/04/15 02:38:43;;;;;;;27.20;13.70;;;;;;;4.99;58.58;100951.30;123369;1099;104313;-77
2022/04/15 02:41:17;;;;;;;28.50;13.03;;;;;;;4.93;57.97;100943.98;123495;1099;104340;-77
2022/04/15 02:43:49;;;;;;;28.07;13.20;;;;;;;4.94;58.41;100937.08;123546;1099;104395;-78
2022/04/15 02:46:21;;;;;;;29.87;12.83;;;;;;;4.88;58.29;100921.99;123368;1098;104216;-78
2022/04/15 02:48:55;;;;;;;30.00;12.73;;;;;;;4.84;58.11;100940.78;123368;1099;104279;-78
2022/04/15 02:51:26;;;;;;;27.53;13.17;;;;;;;4.78;57.61;100924.78;123297;1099;104339;-78
2022/04/15 02:53:57;;;;;;;28.00;12.60;;;;;;;4.73;58.10;100921.87;123343;1097;104368;-78
2022/04/15 02:56:29;;;;;;;31.10;13.03;;;;;;;4.69;58.07;100919.89;123349;1099;104617;-78
2022/04/15 02:59:01;;;;;;;30.73;15.17;;;;;;;4.63;58.27;100928.17;123452;1099;104242;-78
2022/04/15 03:01:34;;;;;;;30.20;15.50;;;;;;;4.59;58.69;100927.88;123386;1099;104374;-79
2022/04/15 03:04:09;;;;;;;37.23;17.47;;;;;;;4.56;58.50;100927.66;123316;1099;104408;-78
2022/04/15 03:06:41;;;;;;;38.80;18.37;;;;;;;4.52;58.54;100928.25;123624;1099;104373;-75
2022/04/15 03:09:14;;;;;;;42.33;19.60;;;;;;;4.48;58.11;100933.23;123622;1098;104312;-75
2022/04/15 03:11:45;;;;;;;41.53;20.43;;;;;;;4.47;59.25;100933.14;123679;1099;104386;-77
2022/04/15 03:14:19;;;;;;;43.17;20.55;;;;;;;4.43;59.74;100932.04;123618;1099;104382;-76
2022/04/15 03:16:51;;;;;;;36.53;16.00;;;;;;;4.42;59.02;100932.83;123666;1099;104680;-76
2022/04/15 03:19:23;;;;;;;32.17;16.00;;;;;;;4.44;59.12;100932.93;123748;1099;104338;-77
2022/04/15 03:21:54;;;;;;;29.77;14.23;;;;;;;4.43;59.50;100932.04;123478;1099;104622;-78
2022/04/15 03:24:25;;;;;;;28.83;12.87;;;;;;;4.41;59.54;100932.72;123557;1099;104746;-78
2022/04/15 03:26:57;;;;;;;28.60;13.23;;;;;;;4.38;58.85;100937.71;123491;1098;104776;-78
2022/04/15 03:29:29;;;;;;;30.77;14.07;;;;;;;4.38;59.52;100943.83;123415;1099;104345;-77
2022/04/15 03:32:02;;;;;;;27.33;13.10;;;;;;;4.37;59.81;100941.13;123361;1097;104245;-78
2022/04/15 03:34:34;;;;;;;28.33;12.50;;;;;;;4.35;59.31;100940.10;123368;1099;104306;-78
2022/04/15 03:37:06;;;;;;;28.83;13.30;;;;;;;4.32;59.57;100944.30;123439;1099;104351;-78
2022/04/15 03:39:37;;;;;;;30.87;13.77;;;;;;;4.28;59.51;100947.48;123383;1099;104325;-77
2022/04/15 03:42:11;;;;;;;30.33;13.60;;;;;;;4.26;59.66;100949.08;123295;1099;104383;-78
2022/04/15 03:44:43;;;;;;;27.25;13.25;;;;;;;4.26;60.53;100951.69;123405;1099;104424;-78
2022/04/15 03:47:16;;;;;;;27.90;13.65;;;;;;;4.27;59.49;100944.78;123362;1098;104376;-77
2022/04/15 03:49:47;;;;;;;29.93;13.27;;;;;;;4.31;59.42;100950.29;123468;1099;104290;-78
2022/04/15 03:52:22;;;;;;;30.47;13.57;;;;;;;4.37;59.86;100946.33;123457;1099;104374;-78
2022/04/15 03:54:53;;;;;;;30.53;13.40;;;;;;;4.43;59.88;100958.03;123447;1098;104181;-79
2022/04/15 03:57:27;;;;;;;30.43;12.93;;;;;;;4.44;60.02;100954.64;123394;1099;104371;-79
2022/04/15 03:59:59;;;;;;;27.73;12.73;;;;;;;4.46;59.19;100958.23;123460;1099;104351;-79
2022/04/15 04:02:30;;;;;;;27.97;12.03;;;;;;;4.49;59.76;100953.24;123455;1099;104345;-79
2022/04/15 04:05:04;;;;;;;31.53;13.10;;;;;;;4.50;60.26;100964.53;123443;1099;104286;-78
2022/04/15 04:07:35;;;;;;;29.73;13.23;;;;;;;4.52;59.41;100962.03;123519;1098;104360;-78
2022/04/15 04:10:07;;;;;;;27.75;12.60;;;;;;;4.51;59.94;100968.94;123605;1098;104264;-76
2022/04/15 04:12:40;;;;;;;27.60;12.67;;;;;;;4.55;60.23;100967.44;123660;1099;104293;-76
2022/04/15 04:15:13;;;;;;;29.00;13.03;;;;;;;4.60;60.88;100961.77;123588;1099;104370;-76
2022/04/15 04:17:46;;;;;;;29.73;13.37;;;;;;;4.62;60.43;100964.47;123706;1099;104380;-76
2022/04/15 04:20:18;;;;;;;29.27;13.53;;;;;;;4.66;60.43;100972.57;123784;1099;104348;-76
2022/04/15 04:22:49;;;;;;;29.67;13.23;;;;;;;4.70;60.70;100976.27;123738;1099;104265;-76
2022/04/15 04:25:21;;;;;;;29.93;13.23;;;;;;;4.72;60.58;100966.89;123931;1099;104622;-77
2022/04/15 04:27:54;;;;;;;28.20;12.87;;;;;;;4.75;60.27;100972.27;123830;1099;104826;-77
2022/04/15 04:30:25;;;;;;;29.57;12.97;;;;;;;4.80;60.21;100957.89;123804;1099;104386;-76
2022/04/15 04:32:59;;;;;;;28.47;12.77;;;;;;;4.88;60.54;100967.88;123681;1097;104284;-77
2022/04/15 04:35:30;;;;;;;30.27;14.47;;;;;;;4.97;60.82;100966.80;123465;1099;105599;-78
2022/04/15 04:38:03;;;;;;;30.23;14.80;;;;;;;5.08;60.43;100956.19;123434;1099;104264;-78
2022/04/15 04:40:35;;;;;;;28.43;14.73;;;;;;;5.18;60.69;100954.28;123383;1098;104376;-77
2022/04/15 04:43:08;;;;;;;35.07;14.93;;;;;;;5.31;60.30;100955.06;123351;1098;104370;-78
2022/04/15 04:45:40;;;;;;;32.77;15.37;;;;;;;5.46;60.31;100956.05;123357;1099;104456;-77
2022/04/15 04:48:12;;;;;;;29.83;15.37;;;;;;;5.56;60.35;100957.52;123428;1097;104312;-76
2022/04/15 04:50:45;;;;;;;34.63;16.57;;;;;;;5.64;60.32;100964.13;123358;1099;104265;-77
2022/04/15 04:53:18;;;;;;;33.07;16.87;;;;;;;5.73;60.49;100955.98;123398;1099;104344;-77
2022/04/15 04:55:49;;;;;;;32.77;16.33;;;;;;;5.85;60.47;100951.53;123370;1099;104347;-77
2022/04/15 04:58:20;;;;;;;30.77;16.37;;;;;;;5.99;60.35;100949.81;123354;1099;108102;-78
2022/04/15 05:00:51;;;;;;;34.43;15.60;;;;;;;6.14;60.12;100943.73;123585;1099;104264;-77
2022/04/15 05:03:24;;;;;;;32.90;16.85;;;;;;;6.25;60.08;100950.52;123437;1099;104357;-78
2022/04/15 05:05:55;;;;;;;32.47;16.63;;;;;;;6.35;60.22;100938.92;123517;1099;104322;-76
2022/04/15 05:08:28;;;;;;;31.40;15.43;;;;;;;6.47;59.99;100942.27;123608;1099;104524;-76
2022/04/15 05:10:59;;;;;;;36.90;17.20;;;;;;;6.57;59.82;100941.09;123552;1099;104387;-76
2022/04/15 05:13:33;;;;;;;33.40;16.50;;;;;;;6.65;59.64;100940.73;123611;1099;104377;-77
2022/04/15 05:16:06;;;;;;;33.27;15.83;;;;;;;6.73;59.69;100933.36;123733;1099;104652;-76
2022/04/15 05:18:38;;;;;;;34.05;15.90;;;;;;;6.81;59.20;100932.09;123827;1098;104274;-76
2022/04/15 05:21:10;;;;;;;33.20;14.13;;;;;;;6.91;59.07;100932.62;123790;1099;104318;-77
2022/04/15 05:23:41;;;;;;;31.60;14.00;;;;;;;7.00;59.38;100934.03;123666;1099;104394;-78
2022/04/15 05:26:13;;;;;;;30.37;14.20;;;;;;;7.12;59.06;100935.53;123693;1097;104638;-78
2022/04/15 05:28:45;;;;;;;29.37;13.13;;;;;;;7.22;58.57;100939.58;123945;1099;104328;-75
2022/04/15 05:31:18;;;;;;;25.93;12.93;;;;;;;7.32;58.67;100931.43;123972;1098;104623;-76
2022/04/15 05:33:50;;;;;;;31.57;13.65;;;;;;;7.45;58.77;100933.00;123710;1099;104271;-78
2022/04/15 05:36:22;;;;;;;31.10;14.53;;;;;;;7.59;58.59;100938.98;123788;1099;104316;-78
2022/04/15 05:38:55;;;;;;;32.93;15.40;;;;;;;7.72;58.54;100939.73;123735;1099;104265;-80
2022/04/15 05:41:29;;;;;;;34.70;15.50;;;;;;;7.87;58.72;100939.68;124072;1099;104328;-78
2022/04/15 05:44:16;;;;;;;33.90;14.60;;;;;;;8.03;58.67;100936.16;123857;1099;104299;-79
2022/04/15 05:46:50;;;;;;;30.53;15.20;;;;;;;8.17;58.21;100936.00;124044;1099;104355;-78
2022/04/15 05:49:24;;;;;;;35.17;15.33;;;;;;;8.30;58.03;100929.68;123543;1099;107897;-80
2022/04/15 05:51:57;;;;;;;31.42;14.68;;;;;;;8.44;57.35;100931.31;123858;1099;104265;-78
2022/04/15 05:54:32;;;;;;;32.27;15.67;;;;;;;8.56;57.58;100931.94;123990;1099;104271;-78
2022/04/15 05:57:09;;;;;;;33.73;15.40;;;;;;;8.68;57.54;100938.60;123736;1098;104201;-77
2022/04/15 05:59:41;;;;;;;33.70;15.13;;;;;;;8.81;57.26;100938.41;123655;1099;118088;-78
2022/04/15 06:02:13;;;;;;;36.13;15.37;;;;;;;8.94;56.58;100938.20;123576;1099;104762;-78
2022/04/15 06:04:46;;;;;;;32.80;14.23;;;;;;;9.04;56.00;100938.63;123864;1099;104270;-80
2022/04/15 06:07:21;;;;;;;37.27;15.43;;;;;;;9.14;56.15;100936.53;124158;1099;104258;-77
2022/04/15 06:09:59;;;;;;;37.73;16.33;;;;;;;9.27;56.07;100943.28;124524;1099;104271;-76
2022/04/15 06:15:24;;;;;;;39.47;19.67;;;;;;;9.57;55.42;100926.30;123530;1099;104376;-78
2022/04/15 06:18:01;;;;;;;38.65;19.00;;;;;;;9.70;55.68;100931.30;123622;1099;104307;-77
2022/04/15 06:20:35;;;;;;;36.93;19.20;;;;;;;9.84;54.98;100929.30;123747;1099;104223;-77
2022/04/15 06:23:08;;;;;;;40.03;20.30;;;;;;;9.97;55.04;100923.80;123821;1099;104309;-77
2022/04/15 06:25:41;;;;;;;44.50;22.07;;;;;;;10.14;54.35;100924.52;123965;1099;104303;-76
2022/04/15 06:28:16;;;;;;;45.43;21.47;;;;;;;10.30;54.66;100918.25;123644;1099;104315;-78
2022/04/15 06:30:50;;;;;;;46.00;22.93;;;;;;;10.46;54.31;100924.19;123676;1098;104260;-79
2022/04/15 06:33:32;;;;;;;45.73;22.97;;;;;;;10.62;54.05;100918.75;123890;1099;104283;-78
2022/04/15 06:36:28;;;;;;;;;;;;;;;10.81;51.94;100916.89;123693;1099;104310;-78
2022/04/15 06:39:00;;;;;;;47.10;21.77;;;;;;;10.98;53.07;100913.22;123595;1099;104603;-78
2022/04/15 06:41:34;;;;;;;39.57;20.30;;;;;;;11.11;53.60;100912.89;123710;1098;104754;-77
2022/04/15 06:44:09;;;;;;;39.40;19.20;;;;;;;11.25;53.66;100916.08;123875;1099;104242;-77
2022/04/15 06:46:46;;;;;;;45.77;19.83;;;;;;;11.44;53.53;100914.17;123597;1099;104342;-77
2022/04/15 06:49:29;;;;;;;38.67;18.17;;;;;;;11.66;53.01;100910.63;123752;1096;104291;-79
2022/04/15 06:52:03;;;;;;;39.40;17.05;;;;;;;11.83;52.18;100912.14;123994;1099;104284;-78
2022/04/15 06:54:48;;;;;;;41.75;19.90;;;;;;;11.99;51.88;100903.11;124243;1099;104232;-79
2022/04/15 06:57:25;;;;;;;42.27;19.67;;;;;;;12.16;52.07;100901.09;124163;1099;104261;-79
2022/04/15 07:00:08;;;;;;;40.47;19.83;;;;;;;12.28;50.05;100902.35;123959;1098;104229;-78
2022/04/15 07:03:03;;;;;;;37.63;18.33;;;;;;;12.46;50.77;100897.73;123846;1099;104297;-76
2022/04/15 07:05:43;;;;;;;36.77;17.83;;;;;;;12.65;51.16;100896.61;123549;1098;104338;-78
2022/04/15 07:08:26;;;;;;;39.30;17.50;;;;;;;12.90;50.79;100900.98;123507;1099;104412;-79
2022/04/15 07:11:17;;;;;;;34.70;17.07;;;;;;;13.02;49.98;100899.58;123972;1098;104673;-80
2022/04/15 07:14:18;;;;;;;40.97;18.87;;;;;;;13.18;50.74;100908.84;123742;1099;104743;-80
2022/04/15 07:17:02;;;;;;;45.15;21.40;;;;;;;13.31;50.40;100901.37;123834;1099;104223;-78
2022/04/15 07:19:43;;;;;;;44.53;22.07;;;;;;;13.51;50.51;100902.86;123695;1099;104338;-79
2022/04/15 07:22:21;;;;;;;;;;;;;;;13.72;49.74;100907.89;123956;1098;104316;-78
2022/04/15 07:25:19;;;;;;;42.80;20.75;;;;;;;13.92;48.09;100903.20;123776;1099;104335;-76
2022/04/15 07:27:53;;;;;;;39.90;19.50;;;;;;;14.03;48.50;100902.63;123647;1098;104284;-78
2022/04/15 07:30:27;;;;;;;36.75;18.60;;;;;;;14.21;49.56;100904.02;123865;1098;105370;-80
2022/04/15 07:33:22;;;;;;;;;;;;;;;14.34;47.44;100897.31;123589;1099;104351;-78
2022/04/15 07:42:47;;;;;;;36.30;17.60;;;;;;;15.15;47.84;100885.27;123940;1099;114125;-80
2022/04/15 07:45:25;;;;;;;38.83;17.83;;;;;;;15.47;47.28;100879.78;123688;1099;104210;-79
2022/04/15 07:48:14;;;;;;;38.07;17.93;;;;;;;15.62;47.66;100872.18;124015;1099;104316;-78
2022/04/15 07:51:12;;;;;;;38.17;18.07;;;;;;;15.72;46.19;100873.28;123686;1099;104329;-78
2022/04/15 07:53:52;;;;;;;43.93;18.40;;;;;;;15.84;45.91;100872.66;123963;1099;104421;-78
2022/04/15 07:56:41;;;;;;;36.50;16.50;;;;;;;16.08;46.56;100864.32;123991;1099;104245;-79
2022/04/15 07:59:19;;;;;;;35.97;16.03;;;;;;;16.28;46.79;100867.34;123965;1099;104261;-77
2022/04/15 08:02:06;;;;;;;31.17;13.07;;;;;;;16.46;44.45;100856.16;124057;1099;104239;-78
2022/04/15 08:04:42;;;;;;;26.77;11.80;;;;;;;16.74;45.05;100861.93;124205;1097;104331;-78
2022/04/15 08:07:34;;;;;;;25.25;9.20;;;;;;;16.86;44.33;100858.59;124072;1099;104271;-79
2022/04/15 08:10:15;;;;;;;24.65;10.25;;;;;;;17.10;44.24;100850.14;123988;1099;104281;-79
2022/04/15 08:12:56;;;;;;;28.43;10.63;;;;;;;17.13;43.73;100846.66;123945;1099;104338;-80
2022/04/15 08:15:28;;;;;;;20.45;8.45;;;;;;;17.24;43.27;100848.56;124225;1099;104342;-79
2022/04/15 08:18:09;;;;;;;23.53;8.30;;;;;;;17.27;42.80;100841.55;123785;1099;104347;-79
2022/04/15 08:20:55;;;;;;;20.00;8.60;;;;;;;17.19;43.01;100842.31;123789;1099;104395;-79
2022/04/15 08:23:50;;;;;;;21.30;8.20;;;;;;;17.18;41.32;100835.22;123725;1099;112086;-79
2022/04/15 08:26:57;;;;;;;19.40;6.70;;;;;;;17.11;41.56;100830.72;123507;1099;104386;-79
2022/04/15 08:29:38;;;;;;;15.97;5.03;;;;;;;17.33;41.76;100825.72;123553;1100;104284;-79
2022/04/15 08:32:23;;;;;;;11.87;4.30;;;;;;;17.54;40.54;100825.96;123587;1099;104427;-81
2022/04/15 08:35:28;;;;;;;12.53;4.90;;;;;;;17.71;40.58;100817.33;123769;1099;104405;-80
2022/04/15 08:38:13;;;;;;;;;;;;;;;;;;;;;
2022/04/15 08:41:04;;;;;;;10.80;4.40;;;;;;;18.03;40.04;100808.84;123408;1099;104446;-78
2022/04/15 08:47:33;;;;;;;;;;;;;;;;;;;;;
2022/04/15 08:50:16;;;;;;;12.30;4.90;;;;;;;18.21;39.62;100787.77;123233;1102;104419;-79
2022/04/15 08:52:48;;;;;;;9.20;4.50;;;;;;;18.39;39.74;100789.71;123952;1099;105458;-78
2022/04/15 08:55:27;;;;;;;12.60;4.13;;;;;;;18.51;38.61;100786.23;123792;1099;104245;-79
2022/04/15 08:58:14;;;;;;;11.93;4.33;;;;;;;18.59;38.15;100779.23;123760;1099;104559;-79
2022/04/15 09:00:53;;;;;;;9.37;4.23;;;;;;;18.60;38.29;100774.80;123911;1099;104271;-78
2022/04/15 09:03:34;;;;;;;;;;;;;;;;;;;;;
2022/04/15 09:06:15;;;;;;;10.53;4.40;;;;;;;18.55;36.39;100772.11;124038;1099;104371;-77
2022/04/15 09:09:04;;;;;;;10.70;4.23;;;;;;;18.58;35.37;100756.19;124362;1098;104271;-79
2022/04/15 09:11:38;;;;;;;9.77;4.37;;;;;;;18.74;37.29;100761.61;123767;1099;104319;-77
2022/04/15 09:14:13;;;;;;;10.85;4.20;;;;;;;18.80;36.52;100759.87;123799;1099;104163;-79
2022/04/15 09:16:56;;;;;;;10.37;3.83;;;;;;;18.91;35.79;100756.43;124236;1099;104264;-80
2022/04/15 09:19:36;;;;;;;11.07;4.27;;;;;;;19.03;36.46;100749.39;124436;1099;104415;-82
2022/04/15 09:22:37;;;;;;;12.33;4.60;;;;;;;19.03;35.59;100746.73;123602;1102;104500;-79
2022/04/15 09:25:15;;;;;;;8.37;4.30;;;;;;;19.16;34.93;100741.48;123775;1102;118239;-80
2022/04/15 09:27:55;;;;;;;8.87;3.73;;;;;;;19.29;35.58;100738.00;124548;1102;104651;-81
2022/04/15 09:30:57;;;;;;;9.47;3.97;;;;;;;19.24;34.16;100742.39;123655;1102;104448;-78
2022/04/15 09:33:40;;;;;;;8.90;3.40;;;;;;;19.32;35.02;100734.44;124076;1102;104370;-79
2022/04/15 09:36:44;;;;;;;9.47;3.73;;;;;;;19.16;34.78;100722.86;123830;1102;104257;-79
2022/04/15 09:39:23;;;;;;;12.90;4.30;;;;;;;19.19;34.48;100720.21;124224;1102;104419;-78
2022/04/15 09:42:30;;;;;;;;;;;;;;;;;;;;;
2022/04/15 09:45:33;;;;;;;8.38;4.28;;;;;;;19.38;33.87;100724.73;125337;1102;104265;-79
2022/04/15 09:48:08;;;;;;;8.40;4.00;;;;;;;19.47;34.05;100717.64;124475;1102;104457;-79
2022/04/15 09:51:15;;;;;;;9.43;4.23;;;;;;;19.54;34.04;100715.00;123746;1102;104431;-78
2022/04/15 09:54:15;;;;;;;;;;;;;;;;;;;;;
2022/04/15 09:57:45;;;;;;;10.57;3.83;;;;;;;19.77;33.78;100713.30;124833;1102;104252;-78
2022/04/15 10:04:36;;;;;;;12.27;4.63;;;;;;;19.85;32.96;100699.11;124603;1099;104398;-78
2022/04/15 10:07:40;;;;;;;8.23;4.40;;;;;;;19.97;33.39;100703.54;124909;1099;104389;-77
2022/04/15 10:10:29;;;;;;;10.93;4.47;;;;;;;19.97;33.25;100695.55;124235;1099;104428;-78
2022/04/15 10:13:17;;;;;;;9.93;3.77;;;;;;;20.00;31.77;100692.89;125473;1099;104342;-77
2022/04/15 10:16:01;;;;;;;16.20;4.40;;;;;;;20.14;32.35;100694.67;125381;1099;104290;-77
2022/04/15 10:18:34;;;;;;;13.30;4.20;;;;;;;20.10;33.05;100689.34;124472;1099;104210;-76
2022/04/15 10:21:08;;;;;;;11.27;4.70;;;;;;;20.07;31.65;100678.69;124772;1099;104316;-77
2022/04/15 10:23:41;;;;;;;11.77;5.07;;;;;;;20.06;32.01;100679.56;124619;1099;104297;-77
2022/04/15 10:26:17;;;;;;;9.88;4.47;;;;;;;20.12;32.26;100676.02;124240;1099;104347;-76
2022/04/15 10:28:53;;;;;;;12.57;4.73;;;;;;;20.14;31.48;100668.03;124665;1099;104344;-76
2022/04/15 10:31:36;;;;;;;10.13;4.40;;;;;;;20.27;31.89;100670.69;124382;1099;104168;-76
2022/04/15 10:34:15;;;;;;;13.60;4.40;;;;;;;20.25;29.23;100656.45;124297;1098;104171;-76
2022/04/15 10:36:50;;;;;;;8.50;4.20;;;;;;;20.21;31.31;100653.80;124203;1099;118446;-77
2022/04/15 10:39:30;;;;;;;11.07;3.90;;;;;;;20.30;31.21;100656.45;124057;1099;104229;-76
2022/04/15 10:42:05;;;;;;;12.23;4.30;;;;;;;20.36;30.86;100645.78;124243;1099;104265;-78
2022/04/15 10:44:39;;;;;;;13.93;4.10;;;;;;;20.46;30.79;100655.53;124676;1098;104392;-76
2022/04/15 10:47:34;;;;;;;11.87;4.30;;;;;;;20.50;30.31;100642.20;124055;1099;104230;-77
2022/04/15 10:50:12;;;;;;;9.23;4.10;;;;;;;20.50;31.37;100644.87;124052;1099;104322;-77
2022/04/15 10:53:20;;;;;;;6.67;3.63;;;;;;;20.48;30.43;100648.41;124215;1099;104392;-78
2022/04/15 10:56:15;;;;;;;8.20;3.40;;;;;;;20.53;31.40;100650.19;123519;1099;104335;-79
2022/04/15 11:02:22;;;;;;;7.77;3.30;;;;;;;20.58;30.07;100638.59;124913;1099;104224;-80
2022/04/15 11:05:11;;;;;;;11.23;3.37;;;;;;;20.70;29.99;100635.05;123435;1100;104453;-78
2022/04/15 11:08:01;;;;;;;7.97;3.43;;;;;;;20.75;29.74;100632.37;123412;1099;107940;-78
2022/04/15 11:11:07;;;;;;;7.57;3.50;;;;;;;20.71;29.83;100625.27;123617;1100;104376;-79
2022/04/15 11:14:17;;;;;;;8.37;3.83;;;;;;;20.68;29.70;100622.61;123648;1100;104329;-80
2022/04/15 11:17:17;;;;;;;10.53;3.50;;;;;;;20.70;29.72;100613.72;123562;1102;104377;-79
2022/04/15 11:20:33;;;;;;;;;;;;;;;;;;;;;
2022/04/15 11:23:53;;;;;;;;;;;;;;;;;;;;;
2022/04/15 11:26:39;;;;;;;8.70;3.20;;;;;;;20.95;28.85;100595.81;123412;1102;104425;-78
2022/04/15 11:32:28;;;;;;;;;;;;;;;;;;;;;
2022/04/15 11:35:30;;;;;;;7.40;3.23;;;;;;;21.08;28.76;100590.41;123431;1102;104484;-78
2022/04/15 11:38:28;;;;;;;6.05;3.30;;;;;;;21.12;27.99;100587.72;123783;1102;104447;-79
2022/04/15 11:41:45;;;;;;;8.60;3.33;;;;;;;21.17;28.55;100582.35;123486;1102;104399;-78
2022/04/15 11:44:33;;;;;;;7.50;3.40;;;;;;;21.23;27.87;100594.78;124075;1102;104392;-80
2022/04/15 11:47:31;;;;;;;7.67;3.00;;;;;;;21.21;26.77;100580.54;123898;1102;104252;-77
2022/04/15 11:50:15;;;;;;;8.00;3.20;;;;;;;21.18;27.12;100582.34;124021;1102;104224;-79
2022/04/15 11:56:42;;;;;;;7.90;3.37;;;;;;;21.22;26.01;100571.65;124926;1102;104715;-77
2022/04/15 11:59:52;;;;;;;6.50;3.20;;;;;;;21.28;27.04;100567.14;124437;1102;111706;-79
2022/04/15 12:03:01;;;;;;;11.37;3.43;;;;;;;21.26;27.03;100557.40;123673;1102;104431;-79
2022/04/15 12:06:00;;;;;;;;;;;;;;;;;;;;;
2022/04/15 12:09:00;;;;;;;7.07;3.30;;;;;;;21.21;27.25;100545.85;124563;1099;104278;-78
2022/04/15 12:11:37;;;;;;;7.33;3.40;;;;;;;21.18;26.83;100541.45;123888;1099;104237;-79
2022/04/15 12:14:13;;;;;;;9.03;3.17;;;;;;;21.14;26.43;100539.69;125145;1099;104335;-79
2022/04/15 12:16:46;;;;;;;10.87;3.37;;;;;;;21.14;27.17;100540.55;124201;1099;104693;-78
2022/04/15 12:19:20;;;;;;;11.50;3.00;;;;;;;21.21;25.84;100527.17;124599;1099;104238;-80
2022/04/15 12:25:23;;;;;;;5.77;2.83;;;;;;;21.26;27.00;100522.70;124176;1099;104568;-79
2022/04/15 12:29:47;;;;;;;5.80;2.80;;;;;;;21.26;26.37;100520.91;124097;1099;104454;-80
2022/04/15 12:31:31;;;;;;;7.07;2.97;;;;;;;21.26;26.80;100520.91;124664;1098;104242;-80
2022/04/15 12:34:07;;;;;;;5.20;3.00;;;;;;;21.28;26.11;100510.23;124153;1098;104271;-77
2022/04/15 12:36:51;;;;;;;7.50;3.17;;;;;;;21.26;25.52;100515.58;123597;1099;104386;-78
2022/04/15 12:39:53;;;;;;;7.50;2.70;;;;;;;21.24;26.04;100500.47;123904;1099;104338;-79